Time;durP1;ratioP1;P1;durP2;ratioP2;P2;SDS_P1;SDS_P2;PMS_P1;PMS_P2;Temp;Humidity;BMP_temperature;BMP_pressure;BME280_temperature;BME280_humidity;BME280_pressure;Samples;Min_cycle;Max_cycle;Signal;HPM_P1;HPM_P2
2023/05/21 00:01:01;;;;;;;0.30;0.30;;;13.40;99.90;;;;;;5068719;28;20048;-74
2023/05/21 00:03:29;;;;;;;0.30;0.30;;;13.40;99.90;;;;;;5068456;28;20044;-74
2023/05/21 00:05:55;;;;;;;0.28;0.28;;;13.40;99.90;;;;;;5068739;28;20102;-75
2023/05/21 00:08:21;;;;;;;0.40;0.40;;;13.40;99.90;;;;;;5068799;28;20381;-74
2023/05/21 00:10:47;;;;;;;;;;;13.40;99.90;;;;;;5052787;28;20040;-74
2023/05/21 00:13:13;;;;;;;0.45;0.45;;;13.40;99.90;;;;;;5068527;28;19969;-74
2023/05/21 00:15:38;;;;;;;;;;;13.30;99.90;;;;;;5069146;28;20117;-74
2023/05/21 00:18:04;;;;;;;1.20;0.40;;;13.40;99.90;;;;;;5068887;28;19916;-74
2023/05/21 00:20:33;;;;;;;;;;;13.30;99.90;;;;;;5052835;28;20418;-73
2023/05/21 00:23:03;;;;;;;0.40;0.40;;;13.30;99.90;;;;;;5085961;28;20003;-73
2023/05/21 00:25:28;;;;;;;0.40;0.40;;;13.30;99.90;;;;;;5080494;28;20048;-75
2023/05/21 00:27:54;;;;;;;0.30;0.30;;;13.30;99.90;;;;;;5068739;28;20039;-75
2023/05/21 00:30:20;;;;;;;0.30;0.30;;;13.30;99.90;;;;;;5068419;28;20076;-75
2023/05/21 00:32:46;;;;;;;0.45;0.45;;;13.30;99.90;;;;;;5068264;28;20044;-74
2023/05/21 00:35:12;;;;;;;0.20;0.20;;;13.30;99.90;;;;;;5068141;28;20044;-74
2023/05/21 00:37:37;;;;;;;0.30;0.30;;;13.30;99.90;;;;;;5068299;28;20464;-74
2023/05/21 00:40:06;;;;;;;2.35;1.33;;;13.30;99.90;;;;;;5068537;28;20115;-75
2023/05/21 00:42:32;;;;;;;0.50;0.50;;;13.30;99.90;;;;;;5074337;28;20035;-75
2023/05/21 00:44:58;;;;;;;;;;;13.30;99.90;;;;;;5059864;28;20119;-74
2023/05/21 00:47:25;;;;;;;0.30;0.30;;;13.30;99.90;;;;;;5067715;28;20011;-74
2023/05/21 00:49:52;;;;;;;0.22;0.22;;;13.30;99.90;;;;;;5067293;28;20052;-75
2023/05/21 00:52:19;;;;;;;0.30;0.30;;;13.30;99.90;;;;;;5067467;28;20063;-74
2023/05/21 00:54:47;;;;;;;0.40;0.40;;;13.30;99.90;;;;;;5068121;28;20051;-75
2023/05/21 00:57:13;;;;;;;0.30;0.30;;;13.40;99.90;;;;;;5067632;28;20046;-74
2023/05/21 00:59:39;;;;;;;;;;;13.30;99.90;;;;;;5051534;28;20048;-74
2023/05/21 01:02:05;;;;;;;0.38;0.38;;;13.30;99.90;;;;;;5068326;28;20273;-74
2023/05/21 01:04:31;;;;;;;;;;;13.30;99.90;;;;;;5051995;28;20130;-74
2023/05/21 01:06:57;;;;;;;0.30;0.30;;;13.30;99.90;;;;;;5068041;28;20039;-74
2023/05/21 01:09:24;;;;;;;;;;;13.30;99.90;;;;;;5068267;28;20213;-74
2023/05/21 01:11:50;;;;;;;0.30;0.30;;;13.40;99.90;;;;;;5068303;28;19919;-74
2023/05/21 01:14:18;;;;;;;0.25;0.25;;;13.30;99.90;;;;;;5068366;28;20036;-75
2023/05/21 01:16:48;;;;;;;0.43;0.43;;;13.30;99.90;;;;;;5051823;28;20048;-75
2023/05/21 01:19:18;;;;;;;0.30;0.30;;;13.30;99.90;;;;;;5085654;28;20048;-74
2023/05/21 01:21:55;;;;;;;0.40;0.40;;;13.30;99.90;;;;;;5088290;28;20048;-74
2023/05/21 01:24:21;;;;;;;0.30;0.30;;;13.30;99.90;;;;;;5088161;28;20748;-74
2023/05/21 01:26:47;;;;;;;0.88;0.88;;;13.30;99.90;;;;;;5086398;28;20145;-74
2023/05/21 01:29:13;;;;;;;0.25;0.25;;;13.30;99.90;;;;;;5067824;28;20052;-75
2023/05/21 01:31:44;;;;;;;0.30;0.30;;;13.30;99.90;;;;;;5067895;28;20106;-75
2023/05/21 01:34:12;;;;;;;0.60;0.60;;;13.40;99.90;;;;;;5068409;28;20048;-74
2023/05/21 01:36:46;;;;;;;0.30;0.30;;;13.30;99.90;;;;;;5068606;28;20048;-75
2023/05/21 01:39:19;;;;;;;0.98;0.98;;;13.30;99.90;;;;;;5068753;28;20056;-75
2023/05/21 01:41:46;;;;;;;0.30;0.30;;;13.30;99.90;;;;;;5068420;28;20048;-75
2023/05/21 01:44:13;;;;;;;0.30;0.30;;;13.30;99.90;;;;;;5050255;28;20504;-74
2023/05/21 01:46:39;;;;;;;0.40;0.40;;;13.30;99.90;;;;;;5047358;28;20406;-74
2023/05/21 01:49:07;;;;;;;1.08;0.57;;;13.30;99.90;;;;;;5043122;28;20431;-74
2023/05/21 01:51:33;;;;;;;0.30;0.30;;;13.30;99.90;;;;;;5066983;28;20119;-75
2023/05/21 01:53:59;;;;;;;0.30;0.30;;;13.30;99.90;;;;;;5067432;28;20080;-74
2023/05/21 01:56:27;;;;;;;0.30;0.30;;;13.30;99.90;;;;;;5067291;28;20087;-74
2023/05/21 01:58:55;;;;;;;4.28;0.73;;;13.30;99.90;;;;;;5067576;28;20071;-75
2023/05/21 02:01:21;;;;;;;0.30;0.30;;;13.30;99.90;;;;;;5067152;28;20048;-74
2023/05/21 02:03:47;;;;;;;0.40;0.40;;;13.20;99.90;;;;;;5067529;28;20051;-74
2023/05/21 02:06:12;;;;;;;0.60;0.60;;;13.30;99.90;;;;;;5071200;28;20441;-74
2023/05/21 02:08:39;;;;;;;0.30;0.30;;;13.20;99.90;;;;;;5070975;28;20090;-74
2023/05/21 02:11:04;;;;;;;0.40;0.38;;;13.20;99.90;;;;;;5071504;28;20575;-75
2023/05/21 02:13:31;;;;;;;0.20;0.20;;;13.20;99.90;;;;;;5055006;28;20080;-74
2023/05/21 02:15:56;;;;;;;0.30;0.30;;;13.20;99.90;;;;;;5091496;28;20101;-74
2023/05/21 02:18:22;;;;;;;0.50;0.50;;;13.10;99.90;;;;;;5090672;28;20052;-75
2023/05/21 02:20:48;;;;;;;0.35;0.35;;;13.10;99.90;;;;;;5108195;28;20475;-75
2023/05/21 02:23:14;;;;;;;;;;;13.10;99.90;;;;;;5091775;28;20052;-74
2023/05/21 02:25:40;;;;;;;0.30;0.30;;;13.00;99.90;;;;;;5081313;28;19997;-74
2023/05/21 02:28:06;;;;;;;0.60;0.60;;;13.00;99.90;;;;;;5070788;28;20060;-75
2023/05/21 02:30:31;;;;;;;0.30;0.30;;;12.90;99.90;;;;;;5071054;28;20067;-74
2023/05/21 02:32:57;;;;;;;0.47;0.47;;;12.80;99.90;;;;;;5037682;28;20478;-75
2023/05/21 02:35:23;;;;;;;0.52;0.52;;;12.70;99.90;;;;;;5070347;28;20075;-75
2023/05/21 02:37:49;;;;;;;0.30;0.30;;;12.60;99.90;;;;;;5053831;28;20044;-73
2023/05/21 02:40:14;;;;;;;;;;;12.50;99.90;;;;;;5069084;28;20048;-74
2023/05/21 02:42:40;;;;;;;0.40;0.40;;;12.40;99.90;;;;;;5065213;28;19924;-74
2023/05/21 02:45:10;;;;;;;0.30;0.30;;;12.40;99.90;;;;;;5076552;28;20117;-74
2023/05/21 02:47:37;;;;;;;0.38;0.38;;;12.30;99.90;;;;;;5070061;28;20048;-74
2023/05/21 02:50:05;;;;;;;0.40;0.40;;;12.30;99.90;;;;;;5069945;28;20041;-74
2023/05/21 02:52:30;;;;;;;0.20;0.20;;;12.30;99.90;;;;;;5070204;28;20432;-75
2023/05/21 02:54:56;;;;;;;0.20;0.20;;;12.30;99.90;;;;;;5071306;28;20131;-75
2023/05/21 02:57:22;;;;;;;0.30;0.30;;;12.30;99.90;;;;;;5070828;28;20474;-74
2023/05/21 02:59:47;;;;;;;;;;;12.40;99.90;;;;;;5070558;28;20491;-74
2023/05/21 03:02:13;;;;;;;0.77;0.77;;;12.40;99.90;;;;;;5070153;28;19968;-75
2023/05/21 03:04:44;;;;;;;0.47;0.47;;;12.40;99.90;;;;;;5069918;28;20055;-74
2023/05/21 03:07:13;;;;;;;0.40;0.40;;;12.40;99.90;;;;;;5070045;28;20106;-74
2023/05/21 03:09:43;;;;;;;0.60;0.60;;;12.40;99.90;;;;;;5069941;28;20055;-75
2023/05/21 03:12:09;;;;;;;0.40;0.40;;;12.40;99.90;;;;;;5066508;28;20536;-74
2023/05/21 03:14:35;;;;;;;0.20;0.20;;;12.40;99.90;;;;;;5052598;28;20508;-74
2023/05/21 03:17:05;;;;;;;0.30;0.30;;;12.40;99.90;;;;;;5053353;28;20036;-73
2023/05/21 03:19:35;;;;;;;0.40;0.40;;;12.30;99.90;;;;;;5069073;28;20056;-75
2023/05/21 03:22:02;;;;;;;0.77;0.77;;;12.40;99.90;;;;;;5069971;28;20145;-74
2023/05/21 03:24:29;;;;;;;0.30;0.30;;;12.40;99.90;;;;;;5053130;28;20519;-74
2023/05/21 03:26:55;;;;;;;1.63;0.65;;;12.30;99.90;;;;;;5069538;28;20048;-74
2023/05/21 03:29:21;;;;;;;0.32;0.32;;;12.30;99.90;;;;;;5068971;28;20063;-74
2023/05/21 03:31:47;;;;;;;0.77;0.77;;;12.30;99.90;;;;;;5069070;28;20044;-75
2023/05/21 03:34:13;;;;;;;0.70;0.70;;;12.30;99.90;;;;;;5052502;28;20036;-74
2023/05/21 03:36:38;;;;;;;0.30;0.30;;;12.30;99.90;;;;;;5048710;28;20386;-74
2023/05/21 03:39:04;;;;;;;0.30;0.30;;;12.30;99.90;;;;;;5032252;28;20040;-74
2023/05/21 03:41:30;;;;;;;0.30;0.30;;;12.30;99.90;;;;;;5048760;28;20110;-74
2023/05/21 03:43:55;;;;;;;0.40;0.40;;;12.30;99.90;;;;;;5080410;28;20047;-74
2023/05/21 03:46:21;;;;;;;0.55;0.55;;;12.30;99.90;;;;;;5052669;28;20142;-74
2023/05/21 03:48:47;;;;;;;0.30;0.30;;;12.30;99.90;;;;;;5069079;28;20119;-75
2023/05/21 03:51:12;;;;;;;0.30;0.30;;;12.30;99.90;;;;;;5069325;28;20048;-74
2023/05/21 03:53:38;;;;;;;0.20;0.20;;;12.30;99.90;;;;;;5052454;28;20052;-74
2023/05/21 03:56:04;;;;;;;0.25;0.25;;;12.40;99.90;;;;;;5052931;28;20131;-74
2023/05/21 03:58:30;;;;;;;0.20;0.20;;;12.40;99.90;;;;;;5068722;28;20046;-74
2023/05/21 04:00:55;;;;;;;0.28;0.28;;;12.40;99.90;;;;;;5051748;28;20106;-74
2023/05/21 04:03:21;;;;;;;0.28;0.28;;;12.40;99.90;;;;;;5069121;28;20063;-74
2023/05/21 04:05:48;;;;;;;0.40;0.40;;;12.40;99.90;;;;;;5068534;28;20048;-75
2023/05/21 04:08:13;;;;;;;0.82;0.82;;;12.40;99.90;;;;;;5088473;28;20035;-75
2023/05/21 04:10:39;;;;;;;0.40;0.40;;;12.40;99.90;;;;;;5088761;28;20062;-74
2023/05/21 04:13:05;;;;;;;0.40;0.40;;;12.40;99.90;;;;;;5055379;28;20040;-75
2023/05/21 04:15:31;;;;;;;;;;;12.40;99.90;;;;;;5087244;28;20040;-74
2023/05/21 04:17:57;;;;;;;0.40;0.40;;;12.50;99.90;;;;;;5069293;28;19921;-74
2023/05/21 04:20:22;;;;;;;;;;;12.50;99.90;;;;;;5052611;28;20048;-74
2023/05/21 04:22:48;;;;;;;0.57;0.57;;;12.50;99.90;;;;;;5051597;28;19993;-74
2023/05/21 04:25:14;;;;;;;0.60;0.60;;;12.50;99.90;;;;;;5068874;28;20572;-75
2023/05/21 04:27:41;;;;;;;0.25;0.25;;;12.50;99.90;;;;;;5067971;28;20080;-74
2023/05/21 04:30:07;;;;;;;0.30;0.30;;;12.50;99.90;;;;;;5051545;28;20053;-74
2023/05/21 04:32:33;;;;;;;0.40;0.40;;;12.50;99.90;;;;;;5068356;28;20457;-74
2023/05/21 04:35:00;;;;;;;0.40;0.40;;;12.50;99.90;;;;;;5069712;28;20473;-75
2023/05/21 04:37:30;;;;;;;0.57;0.57;;;12.50;99.90;;;;;;5069543;28;20056;-74
2023/05/21 04:39:56;;;;;;;0.30;0.30;;;12.60;99.90;;;;;;5069831;28;20107;-74
2023/05/21 04:42:25;;;;;;;0.73;0.73;;;12.60;99.90;;;;;;5073792;28;20040;-74
2023/05/21 04:44:50;;;;;;;0.20;0.20;;;12.70;99.90;;;;;;5093528;28;20044;-74
2023/05/21 04:47:20;;;;;;;0.32;0.32;;;12.80;99.90;;;;;;5068408;28;20397;-74
2023/05/21 04:49:45;;;;;;;0.60;0.60;;;12.90;99.90;;;;;;5068271;28;20394;-74
2023/05/21 04:52:11;;;;;;;0.52;0.52;;;12.90;99.90;;;;;;5051549;28;20040;-74
2023/05/21 04:54:37;;;;;;;;;;;13.00;99.90;;;;;;5068063;28;20048;-74
2023/05/21 04:57:05;;;;;;;0.47;0.47;;;13.00;99.90;;;;;;5068967;28;19920;-75
2023/05/21 04:59:30;;;;;;;0.77;0.77;;;13.00;99.90;;;;;;5070203;28;20399;-74
2023/05/21 05:01:56;;;;;;;0.22;0.22;;;13.00;99.90;;;;;;5051718;28;20082;-75
2023/05/21 05:04:22;;;;;;;;;;;13.10;99.90;;;;;;5088785;28;20044;-74
2023/05/21 05:06:47;;;;;;;0.40;0.40;;;13.10;99.90;;;;;;5088212;28;19927;-74
2023/05/21 05:09:13;;;;;;;0.30;0.30;;;13.10;99.90;;;;;;5071544;28;20059;-74
2023/05/21 05:11:39;;;;;;;0.32;0.32;;;13.20;99.90;;;;;;5087769;28;20040;-74
2023/05/21 05:14:05;;;;;;;0.30;0.30;;;13.20;99.90;;;;;;5098486;28;20043;-74
2023/05/21 05:16:31;;;;;;;1.02;0.30;;;13.20;99.90;;;;;;5068273;28;20054;-74
2023/05/21 05:18:57;;;;;;;0.40;0.40;;;13.30;99.90;;;;;;5067662;28;20040;-75
2023/05/21 05:21:22;;;;;;;0.30;0.30;;;13.40;99.90;;;;;;5067945;28;20055;-74
2023/05/21 05:23:48;;;;;;;0.30;0.30;;;13.50;99.90;;;;;;5067616;28;20434;-75
2023/05/21 05:26:14;;;;;;;;;;;13.60;99.90;;;;;;5051801;28;20131;-75
2023/05/21 05:28:40;;;;;;;0.20;0.20;;;13.60;99.90;;;;;;5067523;28;20073;-74
2023/05/21 05:31:06;;;;;;;0.38;0.38;;;13.70;99.90;;;;;;5034607;28;20056;-74
2023/05/21 05:33:31;;;;;;;0.40;0.40;;;13.70;99.90;;;;;;5067794;28;20040;-74
2023/05/21 05:35:57;;;;;;;;;;;13.70;99.90;;;;;;5068273;28;20178;-74
2023/05/21 05:38:23;;;;;;;0.47;0.47;;;13.90;99.90;;;;;;5067935;28;20345;-74
2023/05/21 05:40:49;;;;;;;0.30;0.30;;;14.00;99.90;;;;;;5071232;28;20145;-74
2023/05/21 05:43:14;;;;;;;0.30;0.30;;;14.10;99.90;;;;;;5083917;28;20052;-75
2023/05/21 05:45:40;;;;;;;0.63;0.63;;;14.20;99.90;;;;;;5090505;28;20055;-74
2023/05/21 05:48:06;;;;;;;0.20;0.20;;;14.30;99.90;;;;;;5071873;28;20119;-74
2023/05/21 05:50:31;;;;;;;0.30;0.30;;;14.30;99.90;;;;;;5072274;28;20126;-74
2023/05/21 05:52:57;;;;;;;0.57;0.57;;;14.40;99.90;;;;;;5071514;28;20044;-75
2023/05/21 05:55:24;;;;;;;;;;;14.40;99.90;;;;;;5055617;28;20437;-75
2023/05/21 05:57:50;;;;;;;0.20;0.20;;;14.40;99.90;;;;;;5071377;28;20328;-74
2023/05/21 06:00:16;;;;;;;0.30;0.30;;;14.40;99.90;;;;;;5086702;28;20047;-75
2023/05/21 06:02:41;;;;;;;0.30;0.30;;;14.40;99.90;;;;;;5108131;28;20508;-74
2023/05/21 06:05:08;;;;;;;0.20;0.20;;;14.40;99.90;;;;;;5108683;28;20043;-75
2023/05/21 06:07:37;;;;;;;0.30;0.30;;;14.40;99.90;;;;;;5074941;28;20097;-75
2023/05/21 06:10:04;;;;;;;0.90;0.55;;;14.40;99.90;;;;;;5074330;28;20542;-75
2023/05/21 06:12:30;;;;;;;0.20;0.20;;;14.40;99.90;;;;;;5108618;28;20482;-74
2023/05/21 06:14:55;;;;;;;0.30;0.30;;;14.50;99.90;;;;;;5094447;28;20115;-74
2023/05/21 06:17:21;;;;;;;0.52;0.52;;;14.50;99.90;;;;;;5054942;28;20051;-73
2023/05/21 06:19:47;;;;;;;0.60;0.60;;;14.60;99.90;;;;;;5070629;28;20048;-74
2023/05/21 06:22:13;;;;;;;0.20;0.20;;;14.60;99.90;;;;;;5071299;28;20428;-75
2023/05/21 06:24:38;;;;;;;0.30;0.30;;;14.60;99.90;;;;;;5054755;28;20552;-74
2023/05/21 06:27:04;;;;;;;;;;;14.60;99.90;;;;;;5071233;28;20438;-75
2023/05/21 06:29:30;;;;;;;0.30;0.30;;;14.70;99.90;;;;;;5070708;28;20007;-74
2023/05/21 06:31:55;;;;;;;0.20;0.20;;;14.70;99.90;;;;;;5053733;28;20048;-75
2023/05/21 06:34:21;;;;;;;0.30;0.30;;;14.70;99.90;;;;;;5070623;28;20056;-75
2023/05/21 06:36:47;;;;;;;;;;;14.80;99.90;;;;;;5054001;28;20048;-74
2023/05/21 06:39:13;;;;;;;0.40;0.40;;;14.90;99.90;;;;;;5070572;28;19916;-75
2023/05/21 06:41:38;;;;;;;0.30;0.30;;;14.90;99.90;;;;;;5053526;28;20135;-75
2023/05/21 06:44:04;;;;;;;;;;;14.80;99.90;;;;;;5068005;28;20477;-74
2023/05/21 06:46:30;;;;;;;0.65;0.65;;;14.80;99.90;;;;;;5070743;28;20007;-75
2023/05/21 06:48:56;;;;;;;0.77;0.77;;;14.80;99.90;;;;;;5070025;28;20076;-75
2023/05/21 06:51:22;;;;;;;0.20;0.20;;;14.90;99.90;;;;;;5069748;28;20552;-74
2023/05/21 06:53:47;;;;;;;;;;;15.00;99.90;;;;;;5053970;28;20094;-74
2023/05/21 06:56:13;;;;;;;0.85;0.68;;;15.10;99.90;;;;;;5066696;28;19949;-75
2023/05/21 06:58:39;;;;;;;0.20;0.20;;;15.30;99.90;;;;;;5090671;28;20079;-75
2023/05/21 07:01:04;;;;;;;;;;;15.40;99.90;;;;;;5091210;28;20040;-75
2023/05/21 07:03:30;;;;;;;0.30;0.30;;;15.50;99.90;;;;;;5090713;28;20371;-75
2023/05/21 07:05:56;;;;;;;;;;;15.50;99.90;;;;;;5107697;28;20036;-74
2023/05/21 07:08:22;;;;;;;0.40;0.40;;;15.50;99.90;;;;;;5090385;28;19928;-74
2023/05/21 07:10:48;;;;;;;0.20;0.20;;;15.50;99.90;;;;;;5106817;28;20044;-75
2023/05/21 07:13:15;;;;;;;0.25;0.25;;;15.50;99.90;;;;;;5090252;28;20040;-74
2023/05/21 07:15:40;;;;;;;0.60;0.55;;;15.60;99.90;;;;;;5070437;28;20048;-75
2023/05/21 07:18:06;;;;;;;0.20;0.20;;;15.70;99.90;;;;;;5069948;28;20047;-75
2023/05/21 07:20:32;;;;;;;0.20;0.20;;;15.80;99.90;;;;;;5053443;28;20116;-75
2023/05/21 07:22:57;;;;;;;;;;;15.90;99.90;;;;;;5039326;28;20037;-76
2023/05/21 07:25:23;;;;;;;0.20;0.20;;;15.90;99.90;;;;;;5040263;28;19969;-75
2023/05/21 07:27:49;;;;;;;0.50;0.50;;;15.90;99.90;;;;;;5069333;28;20126;-76
2023/05/21 07:30:15;;;;;;;;;;;15.80;99.90;;;;;;5070059;28;20087;-75
2023/05/21 07:32:40;;;;;;;0.20;0.20;;;15.70;99.90;;;;;;5052936;28;19932;-76
2023/05/21 07:35:07;;;;;;;0.35;0.35;;;15.60;99.90;;;;;;5069199;28;20090;-75
2023/05/21 07:37:32;;;;;;;;;;;15.60;99.90;;;;;;5070626;28;20044;-75
2023/05/21 07:39:58;;;;;;;0.20;0.20;;;15.60;99.90;;;;;;5069252;28;20396;-75
2023/05/21 07:42:24;;;;;;;;;;;15.70;99.90;;;;;;5075732;28;20131;-75
2023/05/21 07:44:49;;;;;;;0.30;0.30;;;15.70;99.90;;;;;;5061444;28;19920;-76
2023/05/21 07:47:15;;;;;;;0.22;0.22;;;15.80;99.90;;;;;;5052756;28;20584;-76
2023/05/21 07:49:41;;;;;;;;;;;15.90;99.90;;;;;;5069912;28;20036;-75
2023/05/21 07:52:07;;;;;;;0.35;0.30;;;16.10;99.90;;;;;;5079442;28;19947;-75
2023/05/21 07:54:32;;;;;;;;;;;16.20;99.90;;;;;;5058586;28;20373;-76
2023/05/21 07:56:58;;;;;;;0.20;0.20;;;16.20;99.90;;;;;;5069245;28;19921;-75
2023/05/21 07:59:24;;;;;;;;;;;16.20;99.90;;;;;;5053216;28;20512;-76
2023/05/21 08:01:49;;;;;;;0.30;0.30;;;16.30;99.90;;;;;;5068681;28;19920;-75
2023/05/21 08:04:15;;;;;;;;;;;16.30;99.90;;;;;;5069868;28;20492;-75
2023/05/21 08:06:41;;;;;;;0.30;0.30;;;16.30;99.90;;;;;;5069413;28;20028;-75
2023/05/21 08:09:07;;;;;;;;;;;16.40;99.90;;;;;;5052646;28;20473;-76
2023/05/21 08:11:32;;;;;;;0.40;0.40;;;16.40;99.90;;;;;;5069073;28;20007;-75
2023/05/21 08:13:58;;;;;;;;;;;16.50;99.90;;;;;;5069585;28;20055;-76
2023/05/21 08:16:24;;;;;;;0.22;0.22;;;16.40;99.90;;;;;;5069198;28;20427;-75
2023/05/21 08:18:50;;;;;;;;;;;16.50;99.90;;;;;;5068882;28;20051;-76
2023/05/21 08:21:16;;;;;;;0.20;0.20;;;16.50;99.90;;;;;;5069220;28;20284;-75
2023/05/21 08:23:41;;;;;;;;;;;16.60;99.90;;;;;;5070055;28;20045;-76
2023/05/21 08:26:07;;;;;;;0.52;0.52;;;16.80;99.90;;;;;;5064922;28;19971;-76
2023/05/21 08:28:34;;;;;;;;;;;16.70;99.90;;;;;;5032518;28;20126;-75
2023/05/21 08:31:00;;;;;;;0.25;0.25;;;16.70;99.90;;;;;;5048710;28;20380;-75
2023/05/21 08:33:27;;;;;;;0.30;0.30;;;16.80;99.90;;;;;;5035866;28;20376;-76
2023/05/21 08:35:53;;;;;;;1.45;0.73;;;16.70;99.90;;;;;;5051540;28;20041;-76
2023/05/21 08:38:18;;;;;;;;;;;16.80;99.90;;;;;;5068721;28;20091;-75
2023/05/21 08:40:49;;;;;;;0.30;0.30;;;16.80;99.90;;;;;;5068577;28;19959;-76
2023/05/21 08:43:16;;;;;;;0.60;0.52;;;16.80;99.90;;;;;;5080568;28;20484;-75
2023/05/21 08:45:46;;;;;;;0.20;0.20;;;16.90;99.90;;;;;;5088709;28;20101;-75
2023/05/21 08:48:15;;;;;;;0.70;0.60;;;17.10;99.90;;;;;;5079456;28;20481;-75
2023/05/21 08:50:42;;;;;;;0.30;0.30;;;17.20;99.90;;;;;;5068729;28;20076;-75
2023/05/21 08:53:08;;;;;;;0.30;0.30;;;17.30;99.90;;;;;;5067966;28;20094;-75
2023/05/21 08:55:35;;;;;;;1.08;1.08;;;17.30;99.90;;;;;;5068370;28;20053;-76
2023/05/21 08:58:03;;;;;;;0.40;0.40;;;17.30;99.90;;;;;;5068310;28;20052;-75
2023/05/21 09:00:28;;;;;;;0.95;0.95;;;17.30;99.90;;;;;;5068452;28;20048;-76
2023/05/21 09:02:54;;;;;;;;;;;17.30;99.90;;;;;;5068602;28;20063;-76
2023/05/21 09:05:21;;;;;;;0.20;0.20;;;17.50;99.90;;;;;;5068224;28;19931;-75
2023/05/21 09:08:08;;;;;;;0.30;0.30;;;17.60;99.90;;;;;;5051821;28;20036;-76
2023/05/21 09:10:37;;;;;;;0.73;0.73;;;17.80;99.90;;;;;;5065781;28;20359;-76
2023/05/21 09:13:03;;;;;;;0.38;0.38;;;18.00;99.90;;;;;;5067595;28;20037;-74
2023/05/21 09:15:29;;;;;;;0.40;0.40;;;18.10;99.90;;;;;;5054124;28;20033;-76
2023/05/21 09:17:56;;;;;;;0.40;0.40;;;18.00;99.90;;;;;;5047589;28;20136;-76
2023/05/21 09:20:26;;;;;;;0.80;0.80;;;17.90;99.90;;;;;;5048016;28;20045;-75
2023/05/21 09:22:52;;;;;;;1.40;0.88;;;17.90;99.90;;;;;;5047948;28;20091;-75
2023/05/21 09:25:21;;;;;;;0.90;0.30;;;18.00;99.90;;;;;;5054207;28;20362;-75
2023/05/21 09:27:47;;;;;;;0.47;0.47;;;18.00;99.90;;;;;;5068174;28;20052;-75
2023/05/21 09:30:14;;;;;;;;;;;18.00;99.90;;;;;;5067958;28;20391;-76
2023/05/21 09:32:40;;;;;;;0.45;0.45;;;17.90;99.90;;;;;;5067979;28;20007;-75
2023/05/21 09:35:13;;;;;;;0.30;0.30;;;17.90;99.90;;;;;;5054208;28;20388;-76
2023/05/21 09:37:51;;;;;;;0.57;0.57;;;18.10;99.90;;;;;;5067916;28;20083;-76
2023/05/21 09:40:20;;;;;;;0.40;0.35;;;18.30;99.90;;;;;;5067942;28;20071;-76
2023/05/21 09:42:47;;;;;;;1.98;0.50;;;18.50;99.90;;;;;;5075851;28;20135;-75
2023/05/21 09:45:25;;;;;;;0.25;0.25;;;18.60;99.90;;;;;;5055819;28;20132;-76
2023/05/21 09:47:52;;;;;;;0.20;0.20;;;18.60;99.90;;;;;;5067805;28;20131;-76
2023/05/21 09:50:19;;;;;;;0.40;0.40;;;18.60;99.90;;;;;;5067518;28;20040;-76
2023/05/21 09:52:45;;;;;;;0.50;0.50;;;18.50;99.90;;;;;;5052477;28;20036;-75
2023/05/21 09:55:12;;;;;;;0.50;0.50;;;18.50;99.90;;;;;;5050965;28;20559;-76
2023/05/21 09:57:41;;;;;;;0.73;0.73;;;18.60;99.90;;;;;;5067733;28;20057;-75
2023/05/21 10:00:09;;;;;;;0.35;0.35;;;18.70;99.90;;;;;;5067773;28;20059;-76
2023/05/21 10:02:40;;;;;;;0.35;0.35;;;18.90;99.90;;;;;;5067892;28;20078;-75
2023/05/21 10:05:09;;;;;;;0.25;0.25;;;18.80;99.90;;;;;;5067200;28;20127;-75
2023/05/21 10:07:35;;;;;;;0.57;0.55;;;18.60;99.90;;;;;;5067424;28;20045;-75
2023/05/21 10:10:03;;;;;;;0.50;0.50;;;18.50;99.90;;;;;;5067370;28;20045;-75
2023/05/21 10:12:29;;;;;;;0.52;0.30;;;18.50;99.90;;;;;;5047447;28;20058;-76
2023/05/21 10:15:03;;;;;;;0.30;0.30;;;18.60;99.90;;;;;;5060459;28;20036;-76
2023/05/21 10:17:29;;;;;;;0.47;0.43;;;18.70;99.90;;;;;;5050650;28;20371;-76
2023/05/21 10:19:56;;;;;;;0.30;0.30;;;18.60;99.90;;;;;;5067432;28;20048;-76
2023/05/21 10:22:25;;;;;;;0.32;0.32;;;18.50;99.90;;;;;;5050728;28;20044;-76
2023/05/21 10:24:51;;;;;;;0.75;0.75;;;18.50;99.90;;;;;;5050754;28;20052;-76
2023/05/21 10:27:18;;;;;;;0.45;0.45;;;18.40;99.90;;;;;;5070372;28;20461;-75
2023/05/21 10:29:45;;;;;;;2.50;0.90;;;18.30;99.90;;;;;;5070790;28;20145;-76
2023/05/21 10:32:15;;;;;;;0.30;0.30;;;18.30;99.90;;;;;;5054241;28;20044;-76
2023/05/21 10:34:42;;;;;;;1.30;0.30;;;18.50;99.90;;;;;;5071008;28;20051;-75
2023/05/21 10:37:11;;;;;;;0.40;0.40;;;18.50;99.90;;;;;;5071892;28;20045;-76
2023/05/21 10:39:38;;;;;;;0.57;0.35;;;18.50;99.90;;;;;;5070633;28;20522;-76
2023/05/21 10:42:22;;;;;;;0.73;0.70;;;18.50;99.90;;;;;;5088261;28;20234;-75
2023/05/21 10:44:57;;;;;;;0.32;0.32;;;18.50;99.90;;;;;;5070608;28;20048;-76
2023/05/21 10:47:57;;;;;;;0.93;0.77;;;18.50;99.90;;;;;;5070412;28;20048;-75
2023/05/21 10:50:32;;;;;;;0.50;0.38;;;18.30;99.90;;;;;;5060243;28;20052;-76
2023/05/21 10:53:12;;;;;;;0.52;0.52;;;18.30;99.90;;;;;;5084789;28;20043;-75
2023/05/21 10:56:09;;;;;;;0.60;0.60;;;18.30;99.90;;;;;;5070894;28;20466;-76
2023/05/21 10:58:47;;;;;;;0.40;0.40;;;18.30;99.90;;;;;;5071081;28;20070;-75
2023/05/21 11:01:15;;;;;;;0.20;0.20;;;18.40;99.90;;;;;;5070611;28;20401;-76
2023/05/21 11:03:41;;;;;;;0.40;0.40;;;18.40;99.90;;;;;;5070844;28;20131;-76
2023/05/21 11:06:07;;;;;;;0.40;0.40;;;18.50;99.90;;;;;;5070236;28;20044;-75
2023/05/21 11:08:34;;;;;;;;;;;18.70;99.90;;;;;;5070565;28;20477;-75
2023/05/21 11:11:01;;;;;;;0.40;0.40;;;18.70;99.90;;;;;;5070214;28;19916;-76
2023/05/21 11:13:43;;;;;;;0.25;0.25;;;18.60;99.90;;;;;;5070263;28;20047;-75
2023/05/21 11:16:14;;;;;;;0.65;0.65;;;18.70;99.90;;;;;;5069955;28;20055;-76
2023/05/21 11:18:40;;;;;;;0.30;0.30;;;18.80;99.90;;;;;;5070261;28;20113;-75
2023/05/21 11:21:12;;;;;;;0.30;0.30;;;18.90;99.90;;;;;;5069595;28;20079;-76
2023/05/21 11:23:50;;;;;;;0.40;0.40;;;19.00;99.90;;;;;;5070024;28;20048;-75
2023/05/21 11:26:21;;;;;;;0.50;0.50;;;18.90;99.90;;;;;;5069438;28;20445;-75
2023/05/21 11:29:05;;;;;;;0.43;0.43;;;19.00;99.90;;;;;;5070823;28;20371;-75
2023/05/21 11:31:42;;;;;;;0.57;0.57;;;19.20;99.90;;;;;;5070790;28;20056;-75
2023/05/21 11:34:17;;;;;;;0.43;0.43;;;19.20;99.90;;;;;;5071360;28;20048;-75
2023/05/21 11:36:47;;;;;;;0.20;0.20;;;19.30;99.90;;;;;;5077698;28;20493;-75
2023/05/21 11:39:27;;;;;;;0.60;0.60;;;19.40;99.90;;;;;;5090044;28;20047;-75
2023/05/21 11:41:57;;;;;;;0.40;0.40;;;19.30;99.90;;;;;;5106108;28;20101;-75
2023/05/21 11:44:56;;;;;;;0.40;0.40;;;19.20;99.90;;;;;;5068435;28;20084;-75
2023/05/21 11:47:22;;;;;;;0.20;0.20;;;19.40;99.90;;;;;;5068700;28;20057;-75
2023/05/21 11:49:48;;;;;;;0.90;0.90;;;19.70;99.90;;;;;;5069627;28;20045;-75
2023/05/21 11:52:14;;;;;;;0.30;0.30;;;20.00;99.90;;;;;;5064888;28;20039;-74
2023/05/21 11:54:45;;;;;;;0.30;0.30;;;20.00;99.90;;;;;;5073755;28;20431;-75
2023/05/21 11:57:14;;;;;;;0.20;0.20;;;19.90;99.90;;;;;;5069422;28;20054;-75
2023/05/21 11:59:40;;;;;;;0.50;0.50;;;20.00;99.90;;;;;;5069575;28;20145;-75
2023/05/21 12:02:06;;;;;;;0.40;0.40;;;20.10;99.90;;;;;;5069266;28;20517;-77
2023/05/21 12:04:37;;;;;;;0.57;0.57;;;20.00;99.90;;;;;;5052001;28;20068;-76
2023/05/21 12:07:06;;;;;;;1.00;0.82;;;20.00;99.90;;;;;;5068801;28;20049;-76
2023/05/21 12:09:41;;;;;;;0.60;0.60;;;19.90;99.90;;;;;;5068529;28;20047;-75
2023/05/21 12:12:08;;;;;;;3.10;1.05;;;19.90;99.90;;;;;;5069024;28;20036;-75
2023/05/21 12:14:35;;;;;;;0.60;0.43;;;19.90;99.90;;;;;;5068104;28;20044;-74
2023/05/21 12:17:02;;;;;;;0.38;0.38;;;19.80;99.90;;;;;;5068518;28;20052;-75
2023/05/21 12:19:32;;;;;;;0.30;0.30;;;19.70;99.90;;;;;;5068505;28;20174;-74
2023/05/21 12:22:03;;;;;;;0.52;0.52;;;19.50;99.90;;;;;;5068684;28;20047;-76
2023/05/21 12:24:29;;;;;;;3.25;1.58;;;19.30;99.90;;;;;;5068674;28;20393;-74
2023/05/21 12:27:00;;;;;;;0.63;0.63;;;19.30;99.90;;;;;;5068702;28;20041;-75
2023/05/21 12:29:28;;;;;;;1.13;1.13;;;19.30;99.90;;;;;;5052493;28;20057;-76
2023/05/21 12:31:59;;;;;;;0.63;0.63;;;19.40;99.90;;;;;;5052881;28;20499;-76
2023/05/21 12:34:43;;;;;;;1.17;1.13;;;19.70;99.90;;;;;;5075926;28;20463;-75
2023/05/21 12:37:31;;;;;;;0.93;0.77;;;20.00;99.90;;;;;;5068900;28;20097;-75
2023/05/21 12:40:03;;;;;;;0.20;0.20;;;20.00;99.90;;;;;;5051974;28;20097;-75
2023/05/21 12:42:35;;;;;;;0.10;0.10;;;20.10;99.90;;;;;;5074358;28;20374;-75
2023/05/21 12:45:10;;;;;;;6.07;1.20;;;20.30;99.90;;;;;;5076350;28;20052;-74
2023/05/21 12:47:36;;;;;;;0.40;0.40;;;20.50;99.90;;;;;;5067920;28;20079;-75
2023/05/21 12:50:12;;;;;;;0.35;0.35;;;20.80;99.90;;;;;;5068171;28;20090;-74
2023/05/21 12:52:41;;;;;;;0.30;0.30;;;21.10;99.90;;;;;;5068303;28;20087;-75
2023/05/21 12:55:09;;;;;;;0.25;0.25;;;21.10;99.90;;;;;;5068658;28;20060;-75
2023/05/21 12:57:37;;;;;;;0.52;0.52;;;20.70;99.90;;;;;;5068759;28;20052;-74
2023/05/21 13:00:09;;;;;;;1.33;0.95;;;20.40;99.90;;;;;;5058481;28;20474;-75